Time;durP1;ratioP1;P1;durP2;ratioP2;P2;SDS_P1;SDS_P2;PMS_P1;PMS_P2;Temp;Humidity;BMP_temperature;BMP_pressure;BME280_temperature;BME280_humidity;BME280_pressure;Samples;Min_cycle;Max_cycle;Signal;HPM_P1;HPM_P2
2021/08/01 00:01:49;;;;;;;5.27;4.87;;;;;;;15.13;88.31;97327.31;5054308;28;20203;-71
2021/08/01 00:04:17;;;;;;;6.50;4.80;;;;;;;15.19;88.51;97321.13;5043175;28;20226;-72
2021/08/01 00:06:44;;;;;;;5.07;4.67;;;;;;;15.24;88.22;97326.66;5048920;28;20665;-70
2021/08/01 00:09:12;;;;;;;5.33;4.93;;;;;;;15.32;88.03;97313.06;5053183;28;20207;-71
2021/08/01 00:11:40;;;;;;;9.80;6.07;;;;;;;15.67;86.96;97303.06;5055754;28;20211;-71
2021/08/01 00:14:08;;;;;;;6.10;5.50;;;;;;;15.59;87.14;97290.78;5055465;28;20397;-72
2021/08/01 00:16:37;;;;;;;6.33;5.37;;;;;;;15.53;88.13;97297.78;5054787;28;20270;-71
2021/08/01 00:19:06;;;;;;;8.23;5.47;;;;;;;15.43;88.28;97292.09;5054394;28;20817;-71
2021/08/01 00:21:33;;;;;;;6.20;5.60;;;;;;;15.30;89.21;97290.31;5055454;28;20597;-71
2021/08/01 00:24:01;;;;;;;7.67;5.20;;;;;;;15.27;90.15;97293.41;5055779;28;20218;-72
2021/08/01 00:26:29;;;;;;;5.50;5.00;;;;;;;15.20;90.25;97290.75;5052536;28;20228;-72
2021/08/01 00:28:57;;;;;;;6.93;5.50;;;;;;;15.18;91.35;97284.78;5054016;28;20588;-72
2021/08/01 00:31:25;;;;;;;5.73;5.20;;;;;;;15.09;92.57;97289.53;5051536;28;20219;-70
2021/08/01 00:33:57;;;;;;;6.53;5.93;;;;;;;15.02;94.32;97286.91;5054776;28;20192;-71
2021/08/01 00:36:25;;;;;;;5.53;5.13;;;;;;;15.09;91.56;97288.72;5055257;28;20223;-71
2021/08/01 00:38:53;;;;;;;5.57;5.17;;;;;;;15.28;92.05;97285.16;5056477;28;20207;-71
2021/08/01 00:41:21;;;;;;;5.73;4.77;;;;;;;15.23;92.20;97289.50;5052827;28;20773;-71
2021/08/01 00:43:49;;;;;;;6.03;5.43;;;;;;;15.11;93.38;97278.66;5056936;28;20226;-71
2021/08/01 00:46:18;;;;;;;5.57;5.17;;;;;;;14.90;96.62;97280.56;5062517;28;20203;-72
2021/08/01 00:48:46;;;;;;;5.63;5.23;;;;;;;14.88;98.34;97287.97;5053331;28;20204;-71
2021/08/01 00:51:15;;;;;;;5.70;5.30;;;;;;;14.79;100.00;97282.06;5059175;28;20639;-71
2021/08/01 00:53:43;;;;;;;6.37;5.73;;;;;;;14.68;100.00;97295.97;5053513;28;20242;-72
2021/08/01 00:56:11;;;;;;;11.87;5.57;;;;;;;14.60;100.00;97297.03;5057764;28;20480;-71
2021/08/01 00:58:39;;;;;;;6.77;5.40;;;;;;;14.61;100.00;97296.00;5053931;28;20527;-72
2021/08/01 01:01:13;;;;;;;6.47;5.97;;;;;;;14.72;100.00;97297.22;5052930;28;20208;-71
2021/08/01 01:03:46;;;;;;;7.67;5.83;;;;;;;14.48;100.00;97302.16;5053801;28;20226;-72
2021/08/01 01:06:23;;;;;;;5.80;5.40;;;;;;;14.35;100.00;97318.13;5054353;28;20203;-72
2021/08/01 01:08:56;;;;;;;7.83;6.20;;;;;;;14.25;100.00;97323.88;5051192;28;20305;-72
2021/08/01 01:11:28;;;;;;;7.67;6.13;;;;;;;14.25;100.00;97322.03;5049882;28;20203;-72
2021/08/01 01:13:57;;;;;;;7.13;6.30;;;;;;;14.31;100.00;97325.75;5054533;28;20659;-72
2021/08/01 01:16:27;;;;;;;7.50;5.90;;;;;;;14.25;100.00;97330.03;5055226;28;20246;-71
2021/08/01 01:18:58;;;;;;;6.77;6.17;;;;;;;14.21;100.00;97336.78;5059818;28;20668;-72
2021/08/01 01:21:48;;;;;;;7.20;6.50;;;;;;;14.14;100.00;97342.09;5058760;28;20211;-70
2021/08/01 01:24:19;;;;;;;7.43;6.73;;;;;;;14.05;100.00;97346.00;5058683;28;20307;-72
2021/08/01 01:26:55;;;;;;;8.10;6.23;;;;;;;14.09;100.00;97349.88;5057827;28;20222;-71
2021/08/01 01:29:28;;;;;;;8.27;6.93;;;;;;;14.01;100.00;97358.06;5061044;28;20486;-70
2021/08/01 01:32:02;;;;;;;9.33;6.97;;;;;;;13.91;100.00;97360.31;5058094;28;20204;-71
2021/08/01 01:34:47;;;;;;;7.80;7.10;;;;;;;13.85;100.00;97359.25;5061471;28;20210;-71
2021/08/01 01:37:19;;;;;;;7.23;6.43;;;;;;;13.89;100.00;97356.00;5060947;28;20226;-71
2021/08/01 01:39:47;;;;;;;8.67;7.83;;;;;;;13.83;100.00;97359.47;5062523;28;20215;-71
2021/08/01 01:42:17;;;;;;;9.03;7.87;;;;;;;13.84;100.00;97358.47;5057014;28;20199;-71
2021/08/01 01:44:46;;;;;;;8.10;7.33;;;;;;;13.83;100.00;97359.47;5060256;28;20227;-70
2021/08/01 01:47:16;;;;;;;8.63;7.80;;;;;;;13.73;100.00;97365.19;5061653;28;20231;-71
2021/08/01 01:49:44;;;;;;;11.80;8.60;;;;;;;13.70;100.00;97357.59;5061678;28;20206;-72
2021/08/01 01:52:13;;;;;;;9.40;8.57;;;;;;;13.71;100.00;97356.56;5059017;28;20203;-72
2021/08/01 01:54:42;;;;;;;9.33;8.53;;;;;;;13.70;100.00;97351.44;5062087;28;20264;-72
2021/08/01 01:57:11;;;;;;;9.30;8.60;;;;;;;13.72;100.00;97354.72;5055111;28;20627;-72
2021/08/01 01:59:39;;;;;;;10.80;8.10;;;;;;;13.72;100.00;97354.72;5056672;28;20576;-72
2021/08/01 02:02:07;;;;;;;8.60;7.80;;;;;;;13.78;100.00;97342.44;5058654;28;20210;-72
2021/08/01 02:04:36;;;;;;;9.20;8.40;;;;;;;13.72;100.00;97344.91;5059306;28;20328;-71
2021/08/01 02:07:05;;;;;;;9.93;8.93;;;;;;;13.70;100.00;97338.13;5056848;28;20231;-71
2021/08/01 02:09:38;;;;;;;9.07;8.17;;;;;;;13.69;100.00;97336.47;5056605;28;20208;-70
2021/08/01 02:12:12;;;;;;;10.87;9.30;;;;;;;13.71;100.00;97334.44;5059737;28;20210;-73
2021/08/01 02:14:46;;;;;;;9.70;8.90;;;;;;;13.82;100.00;97335.69;5058796;28;20210;-71
2021/08/01 02:17:19;;;;;;;10.57;9.77;;;;;;;13.86;100.00;97334.28;5060455;28;20218;-71
2021/08/01 02:19:49;;;;;;;9.63;8.70;;;;;;;13.83;100.00;97338.19;5061039;28;20423;-73
2021/08/01 02:22:18;;;;;;;10.43;9.57;;;;;;;13.77;100.00;97338.16;5058456;28;20215;-71
2021/08/01 02:24:46;;;;;;;11.13;10.10;;;;;;;13.72;100.00;97336.06;5056656;28;20226;-71
2021/08/01 02:27:16;;;;;;;11.13;9.97;;;;;;;13.74;100.00;97334.88;5058971;28;20222;-72
2021/08/01 02:29:44;;;;;;;11.27;9.67;;;;;;;13.72;100.00;97336.06;5053397;28;20584;-71
2021/08/01 02:32:12;;;;;;;11.30;10.17;;;;;;;13.69;100.00;97331.16;5060716;28;20789;-70
2021/08/01 02:34:40;;;;;;;11.43;10.40;;;;;;;13.75;100.00;97325.84;5054609;28;20203;-70
2021/08/01 02:37:08;;;;;;;10.43;9.53;;;;;;;13.69;100.00;97326.66;5058627;28;20469;-72
2021/08/01 02:39:37;;;;;;;10.90;10.00;;;;;;;13.66;100.00;97326.22;5054480;28;20312;-72
2021/08/01 02:42:06;;;;;;;11.70;10.73;;;;;;;13.66;100.00;97332.38;5056173;28;20212;-70
2021/08/01 02:44:37;;;;;;;11.13;10.20;;;;;;;13.70;100.00;97330.13;5055145;28;20231;-72
2021/08/01 02:47:06;;;;;;;12.20;10.97;;;;;;;13.67;100.00;97336.69;5059456;28;20540;-72
2021/08/01 02:49:38;;;;;;;10.40;9.53;;;;;;;13.68;100.00;97332.16;5058838;28;20215;-71
2021/08/01 02:52:07;;;;;;;11.53;10.43;;;;;;;13.69;100.00;97326.66;5055106;28;20299;-72
2021/08/01 02:54:36;;;;;;;11.57;10.43;;;;;;;13.81;100.00;97326.06;5060241;28;20203;-71
2021/08/01 02:57:06;;;;;;;11.47;10.47;;;;;;;13.79;100.00;97326.25;5053702;28;20222;-71
2021/08/01 02:59:36;;;;;;;10.97;10.07;;;;;;;13.75;100.00;97330.34;5053425;28;20457;-72
2021/08/01 03:02:05;;;;;;;13.30;10.93;;;;;;;13.69;100.00;97328.50;5060430;28;20203;-72
2021/08/01 03:04:38;;;;;;;12.10;10.93;;;;;;;13.67;100.00;97328.69;5051519;28;20727;-73
2021/08/01 03:07:07;;;;;;;11.67;10.63;;;;;;;13.62;100.00;97330.31;5058117;28;20230;-71
2021/08/01 03:09:35;;;;;;;12.27;10.80;;;;;;;13.65;100.00;97324.59;5055409;28;20207;-72
2021/08/01 03:12:10;;;;;;;13.50;10.90;;;;;;;13.74;100.00;97312.72;5051836;28;20458;-71
2021/08/01 03:14:39;;;;;;;12.20;11.20;;;;;;;13.62;100.00;97323.13;5055720;28;20203;-72
2021/08/01 03:17:08;;;;;;;12.37;11.27;;;;;;;13.64;100.00;97328.28;5054414;28;20214;-73
2021/08/01 03:19:37;;;;;;;12.27;11.07;;;;;;;13.62;100.00;97319.66;5058491;28;20219;-72
2021/08/01 03:22:05;;;;;;;12.30;11.10;;;;;;;13.56;100.00;97322.09;5059981;28;20225;-72
2021/08/01 03:24:33;;;;;;;12.80;11.70;;;;;;;13.59;100.00;97321.72;5051316;28;20243;-71
2021/08/01 03:27:01;;;;;;;12.93;10.97;;;;;;;13.60;100.00;97317.19;5057206;28;20226;-73
2021/08/01 03:29:29;;;;;;;11.63;10.53;;;;;;;13.59;100.00;97316.38;5050086;28;20234;-73
2021/08/01 03:31:59;;;;;;;11.70;10.70;;;;;;;13.55;100.00;97308.97;5057710;28;20202;-73
2021/08/01 03:34:27;;;;;;;11.53;10.43;;;;;;;13.52;100.00;97312.06;5062508;28;20199;-74
2021/08/01 03:36:56;;;;;;;10.77;9.87;;;;;;;13.52;100.00;97298.75;5060546;28;20230;-72
2021/08/01 03:39:24;;;;;;;11.10;10.17;;;;;;;13.46;100.00;97301.19;5054164;28;20198;-72
2021/08/01 03:41:52;;;;;;;10.47;9.40;;;;;;;13.41;100.00;97297.44;5059922;28;20222;-73
2021/08/01 03:44:20;;;;;;;13.53;9.57;;;;;;;13.38;100.00;97287.19;5052425;28;20268;-71
2021/08/01 03:46:48;;;;;;;10.30;9.33;;;;;;;13.36;100.00;97298.06;5055068;28;20229;-72
2021/08/01 03:49:17;;;;;;;10.03;9.23;;;;;;;13.31;100.00;97282.66;5055438;28;21498;-73
2021/08/01 03:51:45;;;;;;;10.60;9.07;;;;;;;13.28;100.00;97279.59;5054146;28;20211;-73
2021/08/01 03:54:13;;;;;;;10.57;9.57;;;;;;;13.21;100.00;97284.91;5057584;28;20222;-72
2021/08/01 03:56:43;;;;;;;11.73;10.33;;;;;;;13.17;100.00;97291.63;5050823;28;20230;-74
2021/08/01 03:59:11;;;;;;;10.10;9.10;;;;;;;13.14;100.00;97298.16;5055556;28;20213;-73
2021/08/01 04:01:47;;;;;;;9.97;9.27;;;;;;;13.11;100.00;97308.38;5135613;27;20843;-71
2021/08/01 04:04:15;;;;;;;10.97;9.97;;;;;;;13.11;100.00;97317.16;5124326;27;20600;-74
2021/08/01 04:06:43;;;;;;;11.40;10.40;;;;;;;13.12;100.00;97318.00;5130958;27;20231;-72
2021/08/01 04:09:11;;;;;;;11.00;10.20;;;;;;;13.18;100.00;97318.03;5139200;27;20257;-72
2021/08/01 04:11:43;;;;;;;12.70;10.53;;;;;;;13.14;100.00;97324.75;5139535;27;20278;-73
2021/08/01 04:14:11;;;;;;;11.30;10.20;;;;;;;13.23;100.00;97328.09;5133605;27;20211;-73
2021/08/01 04:16:39;;;;;;;11.57;9.70;;;;;;;13.16;100.00;97329.91;5127416;27;20606;-72
2021/08/01 04:19:10;;;;;;;10.53;9.63;;;;;;;13.17;100.00;97315.56;5134150;27;20449;-67
2021/08/01 04:21:38;;;;;;;10.73;9.77;;;;;;;13.10;100.00;97323.50;5130988;27;20592;-68
2021/08/01 04:24:06;;;;;;;10.70;8.83;;;;;;;13.07;100.00;97315.09;5128742;27;20206;-68
2021/08/01 04:26:34;;;;;;;10.27;9.37;;;;;;;13.04;100.00;97324.31;5128434;27;20273;-69
2021/08/01 04:29:02;;;;;;;11.40;9.60;;;;;;;13.11;100.00;97309.19;5132535;27;20219;-68
2021/08/01 04:31:31;;;;;;;11.80;9.50;;;;;;;13.08;100.00;97316.75;5130350;27;20200;-67
2021/08/01 04:33:59;;;;;;;9.57;8.97;;;;;;;13.06;100.00;97318.78;5132134;27;20200;-68
2021/08/01 04:36:28;;;;;;;10.17;9.47;;;;;;;13.03;100.00;97326.13;5097790;27;20302;-66
2021/08/01 04:38:56;;;;;;;9.43;8.53;;;;;;;13.00;100.00;97325.72;5080964;28;20227;-66
2021/08/01 04:41:24;;;;;;;10.07;9.17;;;;;;;13.02;100.00;97331.66;5079379;28;20245;-68
2021/08/01 04:43:52;;;;;;;9.80;9.00;;;;;;;13.06;100.00;97338.22;5078073;28;20209;-68
2021/08/01 04:46:20;;;;;;;10.07;9.23;;;;;;;13.05;100.00;97333.91;5077344;28;20356;-68
2021/08/01 04:48:48;;;;;;;11.17;10.17;;;;;;;13.06;100.00;97345.38;5080082;28;20205;-67
2021/08/01 04:51:16;;;;;;;11.37;10.13;;;;;;;12.96;100.00;97335.91;5083170;28;20440;-68
2021/08/01 04:53:46;;;;;;;14.33;9.97;;;;;;;13.01;100.00;97341.47;5079256;28;20336;-68
2021/08/01 04:56:13;;;;;;;10.60;9.70;;;;;;;12.95;100.00;97341.44;5080360;28;20581;-66
2021/08/01 04:58:41;;;;;;;10.83;9.93;;;;;;;12.94;100.00;97345.13;5078401;28;20203;-67
2021/08/01 05:01:13;;;;;;;11.23;10.27;;;;;;;12.99;100.00;97348.81;5077899;28;20241;-67
2021/08/01 05:03:41;;;;;;;11.10;10.07;;;;;;;12.97;100.00;97344.72;5079117;28;20305;-69
2021/08/01 05:06:10;;;;;;;11.23;10.17;;;;;;;12.99;100.00;97340.03;5079975;28;20210;-67
2021/08/01 05:08:38;;;;;;;11.27;10.20;;;;;;;12.99;100.00;97346.16;5074428;28;20211;-68
2021/08/01 05:11:07;;;;;;;11.43;10.23;;;;;;;12.95;100.00;97358.19;5073260;28;20871;-66
2021/08/01 05:13:35;;;;;;;10.70;9.70;;;;;;;12.98;100.00;97359.66;5069701;28;20211;-68
2021/08/01 05:16:03;;;;;;;13.87;9.83;;;;;;;13.02;100.00;97368.88;5063187;28;20227;-66
2021/08/01 05:18:31;;;;;;;11.30;10.13;;;;;;;13.09;100.00;97368.94;5067737;28;20203;-66
2021/08/01 05:20:59;;;;;;;10.30;9.50;;;;;;;13.06;100.00;97379.94;5063334;28;20231;-66
2021/08/01 05:23:27;;;;;;;11.20;10.00;;;;;;;13.01;100.00;97376.03;5064540;28;20226;-66
2021/08/01 05:25:57;;;;;;;12.10;10.33;;;;;;;13.16;100.00;97378.59;5062751;28;20202;-66
2021/08/01 05:28:26;;;;;;;12.00;10.80;;;;;;;13.08;100.00;97380.59;5065674;28;20539;-67
2021/08/01 05:30:54;;;;;;;11.83;10.73;;;;;;;13.05;100.00;97383.63;5063877;28;20202;-66
2021/08/01 05:33:22;;;;;;;12.50;10.70;;;;;;;13.10;100.00;97383.88;5064153;28;20203;-66
2021/08/01 05:35:50;;;;;;;12.33;11.03;;;;;;;13.02;100.00;97384.84;5068665;28;20214;-66
2021/08/01 05:38:18;;;;;;;10.93;10.00;;;;;;;13.09;100.00;97387.56;5071851;28;20222;-67
2021/08/01 05:40:46;;;;;;;12.03;10.90;;;;;;;13.11;100.00;97385.53;5063546;28;20222;-66
2021/08/01 05:43:14;;;;;;;11.30;10.20;;;;;;;13.17;100.00;97392.72;5069162;28;20198;-66
2021/08/01 05:45:44;;;;;;;12.33;10.80;;;;;;;13.20;100.00;97395.00;5063434;28;20344;-68
2021/08/01 05:48:12;;;;;;;11.23;10.23;;;;;;;13.17;100.00;97387.41;5063093;28;20764;-68
2021/08/01 05:50:40;;;;;;;11.47;10.40;;;;;;;13.09;100.00;97396.34;5066035;28;22000;-67
2021/08/01 05:53:08;;;;;;;13.87;11.30;;;;;;;13.22;100.00;97389.47;5064199;28;20230;-67
2021/08/01 05:55:35;;;;;;;12.47;11.37;;;;;;;13.14;100.00;97393.94;5060780;28;20415;-66
2021/08/01 05:58:03;;;;;;;11.60;10.60;;;;;;;13.24;100.00;97398.06;5067796;28;20516;-66
2021/08/01 06:00:31;;;;;;;11.93;10.93;;;;;;;13.28;100.00;97391.34;5058687;28;20241;-68
2021/08/01 06:03:01;;;;;;;11.53;10.53;;;;;;;13.21;100.00;97393.97;5059185;28;20306;-65
2021/08/01 06:05:29;;;;;;;12.07;11.00;;;;;;;13.21;100.00;97393.13;5066685;28;20306;-66
2021/08/01 06:07:57;;;;;;;11.07;10.10;;;;;;;13.29;100.00;97395.66;5062373;28;20223;-68
2021/08/01 06:10:25;;;;;;;11.80;10.73;;;;;;;13.33;100.00;97391.59;5068434;28;20252;-67
2021/08/01 06:12:52;;;;;;;11.13;10.33;;;;;;;13.34;100.00;97389.72;5064358;28;20194;-66
2021/08/01 06:15:21;;;;;;;12.20;10.57;;;;;;;13.32;100.00;97389.94;5063761;28;20210;-66
2021/08/01 06:17:49;;;;;;;11.60;10.53;;;;;;;13.30;100.00;97394.66;5063237;28;20233;-67
2021/08/01 06:20:18;;;;;;;10.27;9.47;;;;;;;13.35;100.00;97391.38;5060069;28;20207;-67
2021/08/01 06:22:46;;;;;;;11.00;10.00;;;;;;;13.30;100.00;97390.13;5066368;28;20741;-66
2021/08/01 06:25:14;;;;;;;11.63;10.63;;;;;;;13.39;100.00;97403.28;5069042;28;20217;-67
2021/08/01 06:27:42;;;;;;;10.20;9.27;;;;;;;13.44;100.00;97393.72;5066552;28;20230;-67
2021/08/01 06:30:11;;;;;;;10.93;9.77;;;;;;;13.57;100.00;97384.13;5066869;28;20203;-66
2021/08/01 06:32:39;;;;;;;10.77;9.97;;;;;;;13.58;100.00;97394.59;5067050;28;20623;-66
2021/08/01 06:35:08;;;;;;;10.50;9.60;;;;;;;13.68;100.00;97391.59;5062006;28;20511;-67
2021/08/01 06:37:37;;;;;;;12.40;11.07;;;;;;;13.72;100.00;97392.81;5065683;28;20280;-67
2021/08/01 06:40:06;;;;;;;11.37;10.37;;;;;;;13.72;100.00;97395.50;5065910;28;20746;-68
2021/08/01 06:42:34;;;;;;;11.60;10.63;;;;;;;13.74;100.00;97393.44;5063257;28;20312;-65
2021/08/01 06:45:03;;;;;;;10.40;9.60;;;;;;;13.76;100.00;97401.22;5072199;28;20299;-67
2021/08/01 06:47:31;;;;;;;10.93;9.83;;;;;;;13.75;100.00;97397.75;5064510;28;20470;-66
2021/08/01 06:49:58;;;;;;;11.00;9.90;;;;;;;13.78;100.00;97404.50;5064883;28;20214;-66
2021/08/01 06:52:38;;;;;;;10.23;9.43;;;;;;;13.91;100.00;97402.94;5065021;28;20206;-67
2021/08/01 06:55:08;;;;;;;10.43;9.60;;;;;;;14.01;100.00;97403.34;5064867;28;20207;-66
2021/08/01 06:57:36;;;;;;;10.47;9.57;;;;;;;14.04;100.00;97398.47;5065620;28;20231;-65
2021/08/01 07:00:05;;;;;;;11.17;10.30;;;;;;;14.04;100.00;97394.97;5059932;28;20714;-65
2021/08/01 07:02:33;;;;;;;11.03;10.10;;;;;;;14.17;100.00;97392.31;5069183;28;20708;-65
2021/08/01 07:05:02;;;;;;;11.60;10.60;;;;;;;14.27;100.00;97391.13;5066542;28;20214;-64
2021/08/01 07:07:30;;;;;;;11.67;10.77;;;;;;;14.30;100.00;97388.06;5061148;28;20219;-62
2021/08/01 07:10:00;;;;;;;10.80;9.90;;;;;;;14.36;100.00;97387.25;5068435;28;20209;-64
2021/08/01 07:12:27;;;;;;;11.17;10.03;;;;;;;14.24;100.00;97395.00;5062779;28;20264;-64
2021/08/01 07:14:55;;;;;;;10.83;9.77;;;;;;;14.32;100.00;97392.16;5062781;28;20209;-63
2021/08/01 07:17:23;;;;;;;11.07;10.17;;;;;;;14.39;100.00;97394.81;5060103;28;20241;-63
2021/08/01 07:19:51;;;;;;;10.70;9.80;;;;;;;14.37;100.00;97394.22;5062332;28;20210;-66
2021/08/01 07:22:19;;;;;;;10.77;9.77;;;;;;;14.32;100.00;97389.47;5064346;28;20464;-66
2021/08/01 07:24:47;;;;;;;10.07;9.23;;;;;;;14.50;100.00;97389.91;5057315;28;20602;-66
2021/08/01 07:27:19;;;;;;;11.00;10.00;;;;;;;14.62;100.00;97393.63;5056550;28;20253;-64
2021/08/01 07:29:47;;;;;;;11.30;9.77;;;;;;;14.73;100.00;97387.69;5064417;28;20210;-65
2021/08/01 07:32:15;;;;;;;10.67;9.87;;;;;;;14.60;100.00;97396.47;5065821;28;20210;-66
2021/08/01 07:34:43;;;;;;;8.90;8.30;;;;;;;14.74;100.00;97394.69;5065376;28;20529;-64
2021/08/01 07:37:11;;;;;;;10.07;9.37;;;;;;;14.97;100.00;97395.28;5061803;28;20218;-66
2021/08/01 07:39:42;;;;;;;9.50;8.63;;;;;;;15.09;100.00;97387.47;5057010;28;20353;-64
2021/08/01 07:42:10;;;;;;;10.00;9.00;;;;;;;15.10;100.00;97384.56;5061970;28;20221;-63
2021/08/01 07:44:47;;;;;;;8.73;8.00;;;;;;;15.13;100.00;97386.03;5060379;28;20668;-63
2021/08/01 07:47:16;;;;;;;8.90;8.03;;;;;;;15.13;100.00;97389.50;5056255;28;20233;-63
2021/08/01 07:49:44;;;;;;;9.57;8.77;;;;;;;15.17;100.00;97397.91;5065455;28;20206;-63
2021/08/01 07:52:12;;;;;;;9.63;8.00;;;;;;;15.00;100.00;97390.34;5061481;28;20209;-64
2021/08/01 07:54:40;;;;;;;8.50;7.63;;;;;;;15.03;100.00;97386.44;5062004;28;20211;-64
2021/08/01 07:57:21;;;;;;;10.77;7.67;;;;;;;15.01;100.00;97389.31;5064723;28;21039;-64
2021/08/01 07:59:51;;;;;;;7.77;7.27;;;;;;;14.98;100.00;97386.25;5059367;28;20240;-64
2021/08/01 08:02:19;;;;;;;8.57;7.83;;;;;;;15.02;100.00;97392.81;5062000;28;20768;-64
2021/08/01 08:04:47;;;;;;;8.40;7.60;;;;;;;15.18;100.00;97388.88;5055810;28;20302;-64
2021/08/01 08:07:15;;;;;;;9.07;8.27;;;;;;;15.17;100.00;97388.06;5065125;28;20233;-64
2021/08/01 08:09:44;;;;;;;8.43;7.73;;;;;;;15.30;100.00;97392.53;5058920;28;20202;-64
2021/08/01 08:12:12;;;;;;;7.13;6.50;;;;;;;15.00;100.00;97401.03;5057964;28;20559;-63
2021/08/01 08:14:40;;;;;;;7.97;7.17;;;;;;;14.95;100.00;97406.13;5059848;28;20619;-64
2021/08/01 08:17:09;;;;;;;7.17;6.40;;;;;;;14.93;100.00;97408.19;5061734;28;20250;-65
2021/08/01 08:19:38;;;;;;;7.77;6.30;;;;;;;14.60;100.00;97409.00;5058333;28;20207;-65
2021/08/01 08:22:07;;;;;;;6.60;6.07;;;;;;;14.62;100.00;97413.09;5060795;28;20310;-63
2021/08/01 08:24:35;;;;;;;6.23;5.63;;;;;;;14.79;100.00;97411.91;5067724;28;20237;-65
2021/08/01 08:27:03;;;;;;;5.97;5.33;;;;;;;14.98;100.00;97413.75;5060584;28;20219;-65
2021/08/01 08:29:31;;;;;;;6.20;5.70;;;;;;;15.31;100.00;97410.19;5063772;28;20211;-65
2021/08/01 08:31:59;;;;;;;6.07;5.57;;;;;;;15.55;100.00;97418.56;5064896;28;20203;-64
2021/08/01 08:34:28;;;;;;;6.70;6.20;;;;;;;15.82;100.00;97412.28;5063636;28;20214;-63
2021/08/01 08:37:00;;;;;;;7.07;6.40;;;;;;;15.75;100.00;97412.34;5061473;28;20230;-65
2021/08/01 08:39:29;;;;;;;5.97;5.43;;;;;;;15.85;100.00;97418.06;5061968;28;20219;-65
2021/08/01 08:41:59;;;;;;;6.10;5.50;;;;;;;15.95;100.00;97417.63;5060298;28;20214;-64
2021/08/01 08:44:27;;;;;;;6.20;5.70;;;;;;;16.09;100.00;97412.22;5065008;28;20586;-63
2021/08/01 08:46:56;;;;;;;5.60;5.20;;;;;;;16.14;100.00;97415.91;5066941;28;20225;-63
2021/08/01 08:49:24;;;;;;;6.03;4.83;;;;;;;16.34;100.00;97409.59;5067142;28;20199;-66
2021/08/01 08:51:54;;;;;;;5.30;4.90;;;;;;;16.47;100.00;97412.16;5064336;28;20613;-64
2021/08/01 08:54:26;;;;;;;5.53;5.03;;;;;;;16.65;100.00;97407.94;5066714;28;20564;-64
2021/08/01 08:56:57;;;;;;;5.17;4.87;;;;;;;16.78;100.00;97399.81;5063701;28;20228;-64
2021/08/01 08:59:25;;;;;;;4.90;4.50;;;;;;;17.20;100.00;97395.75;5065734;28;20203;-65
2021/08/01 09:01:53;;;;;;;7.33;4.70;;;;;;;17.21;100.00;97387.50;5062028;28;20214;-66
2021/08/01 09:04:22;;;;;;;6.53;4.67;;;;;;;17.57;100.00;97387.72;5061889;28;20321;-64
2021/08/01 09:06:50;;;;;;;4.37;4.07;;;;;;;17.58;100.00;97388.56;5065655;28;20222;-65
2021/08/01 09:09:19;;;;;;;4.50;4.10;;;;;;;17.54;100.00;97406.13;5058938;28;20655;-65
2021/08/01 09:11:49;;;;;;;4.53;4.23;;;;;;;17.06;100.00;97409.28;5059433;28;20349;-64
2021/08/01 09:14:20;;;;;;;4.00;3.77;;;;;;;17.04;100.00;97411.34;5063319;28;20667;-66
2021/08/01 09:16:50;;;;;;;3.77;3.47;;;;;;;17.14;100.00;97405.50;5058463;28;20215;-66
2021/08/01 09:19:30;;;;;;;4.13;3.90;;;;;;;17.05;100.00;97396.94;5062500;28;20206;-65
2021/08/01 09:22:15;;;;;;;3.63;3.43;;;;;;;17.42;100.00;97395.34;5062655;28;20207;-65
2021/08/01 09:24:47;;;;;;;4.07;3.77;;;;;;;16.80;100.00;97404.94;5059497;28;20198;-65
2021/08/01 09:27:29;;;;;;;3.80;3.50;;;;;;;16.99;100.00;97410.38;5068441;28;20299;-65
2021/08/01 09:29:57;;;;;;;3.90;3.67;;;;;;;16.98;100.00;97420.25;5065759;28;20237;-65
2021/08/01 09:32:26;;;;;;;6.43;3.50;;;;;;;17.18;100.00;97419.25;5060987;28;20211;-67
2021/08/01 09:34:54;;;;;;;3.77;3.40;;;;;;;17.55;100.00;97421.97;5068602;28;20264;-66
2021/08/01 09:37:33;;;;;;;3.33;3.10;;;;;;;17.34;100.00;97417.84;5065024;28;20697;-66
2021/08/01 09:40:13;;;;;;;3.07;2.83;;;;;;;17.35;99.80;97417.66;5061216;28;20198;-67
2021/08/01 09:42:42;;;;;;;4.00;3.70;;;;;;;17.54;100.00;97420.31;5072415;28;20202;-67
2021/08/01 09:45:18;;;;;;;3.60;3.40;;;;;;;17.49;96.97;97422.84;5062242;28;20235;-65
2021/08/01 09:47:47;;;;;;;4.00;3.70;;;;;;;17.43;100.00;97426.44;5065786;28;20222;-64
2021/08/01 09:50:16;;;;;;;3.77;3.50;;;;;;;17.65;100.00;97441.03;5067299;28;20206;-64
2021/08/01 09:52:44;;;;;;;3.37;3.07;;;;;;;17.69;95.46;97432.53;5067250;28;20206;-66
2021/08/01 09:55:21;;;;;;;3.60;3.30;;;;;;;17.74;92.46;97427.34;5069124;28;20202;-64
2021/08/01 09:57:51;;;;;;;3.43;3.13;;;;;;;18.01;88.04;97424.38;5057526;28;20233;-64
2021/08/01 10:00:21;;;;;;;5.13;3.27;;;;;;;17.92;91.25;97419.25;5060006;28;20210;-68
2021/08/01 10:02:49;;;;;;;3.43;3.13;;;;;;;18.22;89.82;97413.13;5066033;28;20367;-66
2021/08/01 10:05:18;;;;;;;3.90;3.43;;;;;;;18.27;93.90;97416.97;5058960;28;20203;-65
2021/08/01 10:07:47;;;;;;;3.50;3.20;;;;;;;18.35;92.42;97419.34;5064695;28;20611;-64
2021/08/01 10:10:21;;;;;;;3.67;3.37;;;;;;;18.78;85.96;97422.84;5058021;28;20203;-65
2021/08/01 10:12:52;;;;;;;3.53;3.23;;;;;;;18.74;80.07;97421.66;5065819;28;20203;-63
2021/08/01 10:15:20;;;;;;;3.20;3.00;;;;;;;18.28;85.17;97406.03;5060038;28;20207;-64
2021/08/01 10:17:48;;;;;;;3.17;2.97;;;;;;;18.32;84.74;97415.28;5063077;28;20226;-65
2021/08/01 10:20:16;;;;;;;3.80;3.20;;;;;;;18.37;86.43;97414.56;5066069;28;20207;-66
2021/08/01 10:22:45;;;;;;;3.30;2.93;;;;;;;18.87;83.32;97408.03;5058536;28;20210;-64
2021/08/01 10:25:18;;;;;;;3.67;3.47;;;;;;;19.12;86.26;97422.31;5064685;28;20223;-64
2021/08/01 10:27:52;;;;;;;3.07;2.87;;;;;;;18.76;80.39;97414.19;5061973;28;20234;-66
2021/08/01 10:30:21;;;;;;;2.70;2.60;;;;;;;18.33;81.04;97416.06;5061546;28;20520;-64
2021/08/01 10:32:53;;;;;;;4.00;3.70;;;;;;;18.08;83.42;97412.47;5066879;28;20209;-65
2021/08/01 10:35:23;;;;;;;4.10;3.80;;;;;;;17.85;86.40;97413.16;5064103;28;20194;-64
2021/08/01 10:37:56;;;;;;;3.93;3.60;;;;;;;18.20;83.46;97404.50;5062713;28;20575;-64
2021/08/01 10:40:25;;;;;;;4.80;4.40;;;;;;;18.04;84.68;97414.00;5061072;28;20229;-64
2021/08/01 10:42:55;;;;;;;3.40;3.03;;;;;;;17.96;82.41;97408.91;5061925;28;20205;-65
2021/08/01 10:45:23;;;;;;;3.50;3.20;;;;;;;18.07;83.35;97393.97;5062306;28;20225;-66
2021/08/01 10:47:52;;;;;;;3.30;3.10;;;;;;;18.50;81.83;97402.81;5062765;28;20253;-66
2021/08/01 10:50:24;;;;;;;3.40;3.20;;;;;;;18.78;81.07;97396.00;5056570;28;20366;-65
2021/08/01 10:53:28;;;;;;;3.90;3.60;;;;;;;19.12;77.51;97400.81;5058372;28;20208;-64
2021/08/01 10:56:36;;;;;;;3.90;3.57;;;;;;;18.93;75.27;97395.53;5064962;28;20206;-65
2021/08/01 10:59:05;;;;;;;2.97;2.73;;;;;;;19.34;72.75;97401.88;5063606;28;20210;-66
2021/08/01 11:02:13;;;;;;;2.50;2.40;;;;;;;18.97;75.34;97398.59;5061426;28;20211;-64
2021/08/01 11:04:43;;;;;;;3.10;2.90;;;;;;;18.94;73.90;97402.53;5065911;28;20757;-66
2021/08/01 11:07:11;;;;;;;2.60;2.50;;;;;;;18.85;74.36;97395.91;5063914;28;20223;-66
2021/08/01 11:09:39;;;;;;;3.23;3.03;;;;;;;18.62;76.61;97395.63;5061028;28;20272;-65
2021/08/01 11:12:29;;;;;;;3.33;3.03;;;;;;;18.17;77.56;97398.75;5067945;28;20210;-64
2021/08/01 11:14:59;;;;;;;3.47;3.27;;;;;;;18.13;80.11;97398.41;5062064;28;20240;-65
2021/08/01 11:18:00;;;;;;;6.47;4.13;;;;;;;17.89;81.87;97406.31;5064937;28;20242;-65
2021/08/01 11:20:47;;;;;;;3.57;3.27;;;;;;;17.78;82.64;97405.19;5061118;28;20206;-65
2021/08/01 11:23:15;;;;;;;3.60;3.30;;;;;;;17.46;87.37;97423.31;5059601;28;20218;-65
2021/08/01 11:26:06;;;;;;;3.97;3.70;;;;;;;16.91;99.97;97420.28;5070489;28;20249;-65
2021/08/01 11:28:35;;;;;;;3.70;2.57;;;;;;;16.35;100.00;97424.59;5054257;28;20330;-65
2021/08/01 11:31:26;;;;;;;3.30;3.10;;;;;;;15.66;100.00;97434.97;5063907;28;20202;-65
2021/08/01 11:33:55;;;;;;;3.07;2.90;;;;;;;15.13;100.00;97429.53;5060255;28;20415;-66
2021/08/01 11:36:27;;;;;;;3.50;3.20;;;;;;;14.83;100.00;97434.47;5055079;28;20210;-64